Idaho City, Idaho
Current Conditions -  °F | °C
As of 1:53 PM on Friday 31 Oct 2014 (Local Time) from KBOI Reporting Station
Overcast Overcast  
Wind Chill: 59°   Ceiling: 10000
Heat Index: 59°   Visibility: 10mi
Dew Point: 38°   Wind: 6mph
Humidity: 46%   Direction: 30°NNE
Pressure: 29.8"   Gusts: NA
Location:  43.83°N, 115.83°W
Report Text: KBOI 311953Z 03005KT 10SM OVC100 15/03 A2980 RMK AO2 SLP082 T01500033
Loading
Personal Weather Stations






























Interactive Weather Map
Tropical Storm Tracking
New forecast layout! Learn more

10-Day Weather Forecast

Advertisements
Track Severe Weather on mobile